sensor_id;sensor_type;location;lat;lon;timestamp;P1;durP1;ratioP1;P2;durP2;ratioP2
20846;SDS011;10584;50.854;12.902;2023-04-08T00:04:08;30.63;;;14.87;;
20846;SDS011;10584;50.854;12.902;2023-04-08T00:09:29;28.30;;;14.17;;
20846;SDS011;10584;50.854;12.902;2023-04-08T00:14:51;28.33;;;12.87;;
20846;SDS011;10584;50.854;12.902;2023-04-08T00:20:13;25.47;;;11.97;;
20846;SDS011;10584;50.854;12.902;2023-04-08T00:25:34;28.67;;;12.67;;
20846;SDS011;10584;50.854;12.902;2023-04-08T00:30:56;26.43;;;12.07;;
20846;SDS011;10584;50.854;12.902;2023-04-08T00:36:18;24.27;;;11.50;;
20846;SDS011;10584;50.854;12.902;2023-04-08T00:41:39;27.57;;;12.27;;
20846;SDS011;10584;50.854;12.902;2023-04-08T00:47:02;26.83;;;12.33;;
20846;SDS011;10584;50.854;12.902;2023-04-08T00:52:24;28.27;;;12.80;;
20846;SDS011;10584;50.854;12.902;2023-04-08T00:57:45;24.63;;;11.60;;
20846;SDS011;10584;50.854;12.902;2023-04-08T01:03:11;23.57;;;11.57;;
20846;SDS011;10584;50.854;12.902;2023-04-08T01:08:46;25.97;;;12.07;;
20846;SDS011;10584;50.854;12.902;2023-04-08T01:14:11;22.97;;;11.33;;
20846;SDS011;10584;50.854;12.902;2023-04-08T01:19:40;23.97;;;11.57;;
20846;SDS011;10584;50.854;12.902;2023-04-08T01:25:04;21.37;;;11.43;;
20846;SDS011;10584;50.854;12.902;2023-04-08T01:30:30;28.40;;;11.87;;
20846;SDS011;10584;50.854;12.902;2023-04-08T01:35:54;20.57;;;10.43;;
20846;SDS011;10584;50.854;12.902;2023-04-08T01:41:17;20.53;;;9.33;;
20846;SDS011;10584;50.854;12.902;2023-04-08T01:46:40;21.20;;;9.47;;
20846;SDS011;10584;50.854;12.902;2023-04-08T01:52:03;19.63;;;9.57;;
20846;SDS011;10584;50.854;12.902;2023-04-08T01:57:26;21.33;;;9.43;;
20846;SDS011;10584;50.854;12.902;2023-04-08T02:02:51;18.63;;;8.60;;
20846;SDS011;10584;50.854;12.902;2023-04-08T02:08:14;15.23;;;6.87;;
20846;SDS011;10584;50.854;12.902;2023-04-08T02:13:36;15.27;;;6.53;;
20846;SDS011;10584;50.854;12.902;2023-04-08T02:18:58;17.20;;;6.50;;
20846;SDS011;10584;50.854;12.902;2023-04-08T02:24:39;13.13;;;5.93;;
20846;SDS011;10584;50.854;12.902;2023-04-08T02:30:02;15.37;;;5.93;;
20846;SDS011;10584;50.854;12.902;2023-04-08T02:35:26;14.13;;;6.33;;
20846;SDS011;10584;50.854;12.902;2023-04-08T02:40:50;13.43;;;5.40;;
20846;SDS011;10584;50.854;12.902;2023-04-08T02:46:12;14.67;;;5.83;;
20846;SDS011;10584;50.854;12.902;2023-04-08T02:51:34;18.43;;;5.27;;
20846;SDS011;10584;50.854;12.902;2023-04-08T02:56:56;13.37;;;5.97;;
20846;SDS011;10584;50.854;12.902;2023-04-08T03:02:17;13.37;;;5.93;;
20846;SDS011;10584;50.854;12.902;2023-04-08T03:07:39;13.57;;;6.47;;
20846;SDS011;10584;50.854;12.902;2023-04-08T03:13:00;14.00;;;6.33;;
20846;SDS011;10584;50.854;12.902;2023-04-08T03:18:22;14.90;;;6.40;;
20846;SDS011;10584;50.854;12.902;2023-04-08T03:23:43;15.73;;;6.50;;
20846;SDS011;10584;50.854;12.902;2023-04-08T03:29:05;16.20;;;6.50;;
20846;SDS011;10584;50.854;12.902;2023-04-08T03:34:27;12.90;;;6.03;;
20846;SDS011;10584;50.854;12.902;2023-04-08T03:39:48;10.23;;;5.30;;
20846;SDS011;10584;50.854;12.902;2023-04-08T03:45:10;12.00;;;5.70;;
20846;SDS011;10584;50.854;12.902;2023-04-08T03:50:31;10.07;;;5.00;;
20846;SDS011;10584;50.854;12.902;2023-04-08T03:55:52;8.87;;;4.03;;
20846;SDS011;10584;50.854;12.902;2023-04-08T04:01:15;9.03;;;3.87;;
20846;SDS011;10584;50.854;12.902;2023-04-08T04:06:36;7.47;;;4.07;;
20846;SDS011;10584;50.854;12.902;2023-04-08T04:11:58;9.20;;;4.53;;
20846;SDS011;10584;50.854;12.902;2023-04-08T04:17:19;9.43;;;4.07;;
20846;SDS011;10584;50.854;12.902;2023-04-08T04:22:41;9.30;;;4.10;;
20846;SDS011;10584;50.854;12.902;2023-04-08T04:28:03;8.57;;;4.07;;
20846;SDS011;10584;50.854;12.902;2023-04-08T04:33:24;6.20;;;3.53;;
20846;SDS011;10584;50.854;12.902;2023-04-08T04:38:46;7.70;;;3.50;;
20846;SDS011;10584;50.854;12.902;2023-04-08T04:44:09;7.63;;;4.07;;
20846;SDS011;10584;50.854;12.902;2023-04-08T04:49:31;7.03;;;3.70;;
20846;SDS011;10584;50.854;12.902;2023-04-08T04:54:52;6.93;;;3.53;;
20846;SDS011;10584;50.854;12.902;2023-04-08T05:00:14;7.03;;;4.10;;
20846;SDS011;10584;50.854;12.902;2023-04-08T05:05:36;6.50;;;3.70;;
20846;SDS011;10584;50.854;12.902;2023-04-08T05:10:58;8.37;;;3.90;;
20846;SDS011;10584;50.854;12.902;2023-04-08T05:16:21;8.67;;;3.80;;
20846;SDS011;10584;50.854;12.902;2023-04-08T05:21:42;7.40;;;3.73;;
20846;SDS011;10584;50.854;12.902;2023-04-08T05:27:04;8.60;;;3.70;;
20846;SDS011;10584;50.854;12.902;2023-04-08T05:32:26;5.47;;;3.20;;
20846;SDS011;10584;50.854;12.902;2023-04-08T05:37:49;8.33;;;3.67;;
20846;SDS011;10584;50.854;12.902;2023-04-08T05:43:10;7.97;;;3.43;;
20846;SDS011;10584;50.854;12.902;2023-04-08T05:48:32;5.10;;;3.00;;
20846;SDS011;10584;50.854;12.902;2023-04-08T05:53:53;6.03;;;3.10;;
20846;SDS011;10584;50.854;12.902;2023-04-08T05:59:15;7.00;;;2.80;;
20846;SDS011;10584;50.854;12.902;2023-04-08T06:04:36;5.23;;;2.67;;
20846;SDS011;10584;50.854;12.902;2023-04-08T06:09:58;6.17;;;2.87;;
20846;SDS011;10584;50.854;12.902;2023-04-08T06:15:20;5.90;;;2.80;;
20846;SDS011;10584;50.854;12.902;2023-04-08T06:20:41;4.73;;;2.33;;
20846;SDS011;10584;50.854;12.902;2023-04-08T06:26:03;5.30;;;2.77;;
20846;SDS011;10584;50.854;12.902;2023-04-08T06:31:24;8.73;;;3.67;;
20846;SDS011;10584;50.854;12.902;2023-04-08T06:36:46;5.40;;;2.67;;
20846;SDS011;10584;50.854;12.902;2023-04-08T06:42:07;4.60;;;2.37;;
20846;SDS011;10584;50.854;12.902;2023-04-08T06:47:46;4.47;;;2.40;;
20846;SDS011;10584;50.854;12.902;2023-04-08T06:53:07;3.27;;;1.97;;
20846;SDS011;10584;50.854;12.902;2023-04-08T06:58:29;4.70;;;2.17;;
20846;SDS011;10584;50.854;12.902;2023-04-08T07:03:51;3.73;;;1.90;;
20846;SDS011;10584;50.854;12.902;2023-04-08T07:09:12;6.20;;;2.57;;
20846;SDS011;10584;50.854;12.902;2023-04-08T07:14:34;3.57;;;2.17;;
20846;SDS011;10584;50.854;12.902;2023-04-08T07:19:55;4.87;;;2.50;;
20846;SDS011;10584;50.854;12.902;2023-04-08T07:25:16;7.03;;;2.93;;
20846;SDS011;10584;50.854;12.902;2023-04-08T07:30:38;6.93;;;3.27;;
20846;SDS011;10584;50.854;12.902;2023-04-08T07:36:00;8.60;;;3.90;;
20846;SDS011;10584;50.854;12.902;2023-04-08T07:41:21;11.17;;;4.50;;
20846;SDS011;10584;50.854;12.902;2023-04-08T07:46:43;11.93;;;4.80;;
20846;SDS011;10584;50.854;12.902;2023-04-08T07:52:11;11.60;;;4.90;;
20846;SDS011;10584;50.854;12.902;2023-04-08T07:57:32;10.90;;;5.47;;
20846;SDS011;10584;50.854;12.902;2023-04-08T08:02:54;12.43;;;5.23;;
20846;SDS011;10584;50.854;12.902;2023-04-08T08:08:16;15.83;;;6.37;;
20846;SDS011;10584;50.854;12.902;2023-04-08T08:13:37;14.10;;;6.57;;
20846;SDS011;10584;50.854;12.902;2023-04-08T08:18:59;18.20;;;7.00;;
20846;SDS011;10584;50.854;12.902;2023-04-08T08:24:20;19.97;;;7.63;;
20846;SDS011;10584;50.854;12.902;2023-04-08T08:29:42;17.80;;;7.63;;
20846;SDS011;10584;50.854;12.902;2023-04-08T08:35:04;24.37;;;9.60;;
20846;SDS011;10584;50.854;12.902;2023-04-08T08:40:25;27.90;;;10.53;;
20846;SDS011;10584;50.854;12.902;2023-04-08T08:45:47;31.97;;;12.13;;
20846;SDS011;10584;50.854;12.902;2023-04-08T08:51:08;32.63;;;11.63;;
20846;SDS011;10584;50.854;12.902;2023-04-08T08:56:33;35.27;;;13.43;;
20846;SDS011;10584;50.854;12.902;2023-04-08T09:01:55;39.20;;;14.87;;
20846;SDS011;10584;50.854;12.902;2023-04-08T09:07:17;43.83;;;17.70;;
20846;SDS011;10584;50.854;12.902;2023-04-08T09:12:53;43.33;;;18.17;;
20846;SDS011;10584;50.854;12.902;2023-04-08T09:18:21;48.77;;;19.30;;
20846;SDS011;10584;50.854;12.902;2023-04-08T09:23:47;52.03;;;20.63;;
20846;SDS011;10584;50.854;12.902;2023-04-08T09:29:10;44.20;;;18.80;;
20846;SDS011;10584;50.854;12.902;2023-04-08T09:34:45;50.60;;;20.57;;
20846;SDS011;10584;50.854;12.902;2023-04-08T09:40:07;46.13;;;20.30;;
20846;SDS011;10584;50.854;12.902;2023-04-08T09:45:28;51.30;;;21.53;;
20846;SDS011;10584;50.854;12.902;2023-04-08T09:50:52;51.97;;;21.13;;
20846;SDS011;10584;50.854;12.902;2023-04-08T09:56:18;52.00;;;21.30;;
20846;SDS011;10584;50.854;12.902;2023-04-08T10:01:42;45.30;;;19.57;;
20846;SDS011;10584;50.854;12.902;2023-04-08T10:07:11;48.13;;;19.67;;
20846;SDS011;10584;50.854;12.902;2023-04-08T10:12:35;41.37;;;18.77;;
20846;SDS011;10584;50.854;12.902;2023-04-08T10:18:42;35.27;;;17.63;;
20846;SDS011;10584;50.854;12.902;2023-04-08T10:23:53;33.40;;;15.50;;
20846;SDS011;10584;50.854;12.902;2023-04-08T10:34:57;26.43;;;12.03;;
20846;SDS011;10584;50.854;12.902;2023-04-08T10:40:19;27.03;;;11.60;;
20846;SDS011;10584;50.854;12.902;2023-04-08T10:45:41;24.40;;;11.10;;
20846;SDS011;10584;50.854;12.902;2023-04-08T10:51:08;21.43;;;10.43;;
20846;SDS011;10584;50.854;12.902;2023-04-08T10:56:29;18.50;;;9.47;;
20846;SDS011;10584;50.854;12.902;2023-04-08T11:01:51;18.43;;;8.50;;
20846;SDS011;10584;50.854;12.902;2023-04-08T11:07:12;13.53;;;7.07;;
20846;SDS011;10584;50.854;12.902;2023-04-08T11:12:35;13.83;;;7.33;;
20846;SDS011;10584;50.854;12.902;2023-04-08T11:17:58;15.87;;;8.03;;
20846;SDS011;10584;50.854;12.902;2023-04-08T11:23:23;15.50;;;8.57;;
20846;SDS011;10584;50.854;12.902;2023-04-08T11:28:45;13.80;;;7.30;;
20846;SDS011;10584;50.854;12.902;2023-04-08T11:34:11;18.30;;;8.63;;
20846;SDS011;10584;50.854;12.902;2023-04-08T11:39:44;15.53;;;8.50;;
20846;SDS011;10584;50.854;12.902;2023-04-08T11:45:09;19.20;;;8.83;;
20846;SDS011;10584;50.854;12.902;2023-04-08T11:50:31;16.57;;;8.40;;
20846;SDS011;10584;50.854;12.902;2023-04-08T11:55:53;19.23;;;9.50;;
20846;SDS011;10584;50.854;12.902;2023-04-08T12:01:15;18.10;;;7.83;;
20846;SDS011;10584;50.854;12.902;2023-04-08T12:06:36;19.77;;;9.60;;
20846;SDS011;10584;50.854;12.902;2023-04-08T12:11:58;18.53;;;8.90;;
20846;SDS011;10584;50.854;12.902;2023-04-08T12:17:20;20.03;;;9.20;;
20846;SDS011;10584;50.854;12.902;2023-04-08T12:22:41;20.33;;;9.63;;
20846;SDS011;10584;50.854;12.902;2023-04-08T12:28:03;23.00;;;11.10;;
20846;SDS011;10584;50.854;12.902;2023-04-08T12:33:25;19.03;;;9.27;;
20846;SDS011;10584;50.854;12.902;2023-04-08T12:38:46;20.23;;;9.23;;
20846;SDS011;10584;50.854;12.902;2023-04-08T12:44:08;21.07;;;10.53;;
20846;SDS011;10584;50.854;12.902;2023-04-08T12:49:29;21.03;;;10.37;;
20846;SDS011;10584;50.854;12.902;2023-04-08T12:55:07;22.33;;;10.40;;
20846;SDS011;10584;50.854;12.902;2023-04-08T13:00:29;24.27;;;11.17;;
20846;SDS011;10584;50.854;12.902;2023-04-08T13:05:51;20.83;;;10.90;;
20846;SDS011;10584;50.854;12.902;2023-04-08T13:11:13;25.87;;;12.50;;
20846;SDS011;10584;50.854;12.902;2023-04-08T13:16:34;28.13;;;12.80;;
20846;SDS011;10584;50.854;12.902;2023-04-08T13:21:56;28.37;;;14.57;;
20846;SDS011;10584;50.854;12.902;2023-04-08T13:27:17;28.30;;;14.80;;
20846;SDS011;10584;50.854;12.902;2023-04-08T13:32:38;32.30;;;16.10;;
20846;SDS011;10584;50.854;12.902;2023-04-08T13:38:00;34.17;;;17.03;;
20846;SDS011;10584;50.854;12.902;2023-04-08T13:43:21;34.97;;;17.33;;
20846;SDS011;10584;50.854;12.902;2023-04-08T13:48:43;36.63;;;17.93;;
20846;SDS011;10584;50.854;12.902;2023-04-08T13:54:05;35.37;;;16.80;;
20846;SDS011;10584;50.854;12.902;2023-04-08T13:59:27;39.80;;;18.37;;
20846;SDS011;10584;50.854;12.902;2023-04-08T14:04:48;33.10;;;16.97;;
20846;SDS011;10584;50.854;12.902;2023-04-08T14:10:11;36.40;;;17.60;;
20846;SDS011;10584;50.854;12.902;2023-04-08T14:15:34;33.07;;;16.50;;
20846;SDS011;10584;50.854;12.902;2023-04-08T14:20:56;34.40;;;17.47;;
20846;SDS011;10584;50.854;12.902;2023-04-08T14:26:17;35.83;;;17.53;;
20846;SDS011;10584;50.854;12.902;2023-04-08T14:31:39;35.33;;;18.03;;
20846;SDS011;10584;50.854;12.902;2023-04-08T14:37:00;40.30;;;18.10;;
20846;SDS011;10584;50.854;12.902;2023-04-08T14:42:22;35.13;;;17.53;;
20846;SDS011;10584;50.854;12.902;2023-04-08T14:47:45;35.67;;;17.30;;
20846;SDS011;10584;50.854;12.902;2023-04-08T14:53:06;34.27;;;17.80;;
20846;SDS011;10584;50.854;12.902;2023-04-08T14:58:28;39.10;;;18.77;;
20846;SDS011;10584;50.854;12.902;2023-04-08T15:03:49;36.73;;;17.67;;
20846;SDS011;10584;50.854;12.902;2023-04-08T15:09:11;35.67;;;18.63;;
20846;SDS011;10584;50.854;12.902;2023-04-08T15:14:32;37.40;;;17.70;;
20846;SDS011;10584;50.854;12.902;2023-04-08T15:19:54;39.30;;;19.43;;
20846;SDS011;10584;50.854;12.902;2023-04-08T15:25:16;40.90;;;18.87;;
20846;SDS011;10584;50.854;12.902;2023-04-08T15:30:37;43.37;;;19.73;;
20846;SDS011;10584;50.854;12.902;2023-04-08T15:35:59;42.93;;;19.67;;
20846;SDS011;10584;50.854;12.902;2023-04-08T15:41:23;39.57;;;18.30;;
20846;SDS011;10584;50.854;12.902;2023-04-08T15:46:45;41.77;;;20.00;;
20846;SDS011;10584;50.854;12.902;2023-04-08T15:52:07;39.57;;;18.27;;
20846;SDS011;10584;50.854;12.902;2023-04-08T15:57:28;47.07;;;20.47;;
20846;SDS011;10584;50.854;12.902;2023-04-08T16:02:51;46.80;;;21.47;;
20846;SDS011;10584;50.854;12.902;2023-04-08T16:08:13;46.40;;;21.97;;
20846;SDS011;10584;50.854;12.902;2023-04-08T16:13:35;42.50;;;20.87;;
20846;SDS011;10584;50.854;12.902;2023-04-08T16:18:58;43.00;;;20.77;;
20846;SDS011;10584;50.854;12.902;2023-04-08T16:24:21;42.90;;;19.63;;
20846;SDS011;10584;50.854;12.902;2023-04-08T16:29:42;48.80;;;20.80;;
20846;SDS011;10584;50.854;12.902;2023-04-08T16:35:05;46.80;;;20.80;;
20846;SDS011;10584;50.854;12.902;2023-04-08T16:40:26;46.57;;;21.43;;
20846;SDS011;10584;50.854;12.902;2023-04-08T16:45:52;49.17;;;22.40;;
20846;SDS011;10584;50.854;12.902;2023-04-08T16:51:13;43.20;;;19.40;;
20846;SDS011;10584;50.854;12.902;2023-04-08T16:56:36;39.60;;;18.93;;
20846;SDS011;10584;50.854;12.902;2023-04-08T17:02:03;42.20;;;20.00;;
20846;SDS011;10584;50.854;12.902;2023-04-08T17:07:24;44.97;;;20.47;;
20846;SDS011;10584;50.854;12.902;2023-04-08T17:12:47;52.93;;;23.40;;
20846;SDS011;10584;50.854;12.902;2023-04-08T17:18:09;41.73;;;19.00;;
20846;SDS011;10584;50.854;12.902;2023-04-08T17:23:30;42.27;;;18.87;;
20846;SDS011;10584;50.854;12.902;2023-04-08T17:28:52;43.97;;;19.77;;
20846;SDS011;10584;50.854;12.902;2023-04-08T17:34:13;42.53;;;19.03;;
20846;SDS011;10584;50.854;12.902;2023-04-08T17:39:35;46.37;;;19.97;;
20846;SDS011;10584;50.854;12.902;2023-04-08T17:45:00;47.47;;;19.70;;
20846;SDS011;10584;50.854;12.902;2023-04-08T17:50:22;43.87;;;20.03;;
20846;SDS011;10584;50.854;12.902;2023-04-08T17:55:43;40.57;;;17.43;;
20846;SDS011;10584;50.854;12.902;2023-04-08T18:01:05;37.83;;;17.20;;
20846;SDS011;10584;50.854;12.902;2023-04-08T18:06:26;34.40;;;16.67;;
20846;SDS011;10584;50.854;12.902;2023-04-08T18:11:49;36.50;;;16.73;;
20846;SDS011;10584;50.854;12.902;2023-04-08T18:17:10;34.37;;;16.50;;
20846;SDS011;10584;50.854;12.902;2023-04-08T18:22:33;30.37;;;14.97;;
20846;SDS011;10584;50.854;12.902;2023-04-08T18:27:55;33.47;;;15.70;;
20846;SDS011;10584;50.854;12.902;2023-04-08T18:33:17;34.43;;;15.80;;
20846;SDS011;10584;50.854;12.902;2023-04-08T18:38:39;34.37;;;15.23;;
20846;SDS011;10584;50.854;12.902;2023-04-08T18:44:01;31.80;;;15.30;;
20846;SDS011;10584;50.854;12.902;2023-04-08T18:49:23;32.53;;;15.30;;
20846;SDS011;10584;50.854;12.902;2023-04-08T18:54:44;32.63;;;14.77;;
20846;SDS011;10584;50.854;12.902;2023-04-08T19:00:08;31.43;;;14.60;;
20846;SDS011;10584;50.854;12.902;2023-04-08T19:05:30;32.33;;;15.77;;
20846;SDS011;10584;50.854;12.902;2023-04-08T19:10:52;33.50;;;15.33;;
20846;SDS011;10584;50.854;12.902;2023-04-08T19:16:13;36.43;;;16.40;;
20846;SDS011;10584;50.854;12.902;2023-04-08T19:21:35;33.17;;;15.97;;
20846;SDS011;10584;50.854;12.902;2023-04-08T19:26:56;34.87;;;16.90;;
20846;SDS011;10584;50.854;12.902;2023-04-08T19:32:18;36.27;;;16.83;;
20846;SDS011;10584;50.854;12.902;2023-04-08T19:37:39;34.47;;;17.10;;
20846;SDS011;10584;50.854;12.902;2023-04-08T19:43:01;38.83;;;17.53;;
20846;SDS011;10584;50.854;12.902;2023-04-08T19:48:22;39.87;;;17.97;;
20846;SDS011;10584;50.854;12.902;2023-04-08T19:53:45;40.87;;;18.77;;
20846;SDS011;10584;50.854;12.902;2023-04-08T19:59:06;41.90;;;19.00;;
20846;SDS011;10584;50.854;12.902;2023-04-08T20:04:27;39.00;;;18.33;;
20846;SDS011;10584;50.854;12.902;2023-04-08T20:09:50;37.20;;;18.60;;
20846;SDS011;10584;50.854;12.902;2023-04-08T20:15:12;44.10;;;19.70;;
20846;SDS011;10584;50.854;12.902;2023-04-08T20:20:44;45.03;;;18.93;;
20846;SDS011;10584;50.854;12.902;2023-04-08T20:26:07;40.30;;;19.43;;
20846;SDS011;10584;50.854;12.902;2023-04-08T20:31:30;40.53;;;19.03;;
20846;SDS011;10584;50.854;12.902;2023-04-08T20:36:52;42.40;;;20.20;;
20846;SDS011;10584;50.854;12.902;2023-04-08T20:42:14;45.53;;;19.90;;
20846;SDS011;10584;50.854;12.902;2023-04-08T20:47:35;42.70;;;19.13;;
20846;SDS011;10584;50.854;12.902;2023-04-08T20:52:58;46.13;;;20.00;;
20846;SDS011;10584;50.854;12.902;2023-04-08T20:58:20;41.23;;;19.23;;
20846;SDS011;10584;50.854;12.902;2023-04-08T21:03:41;46.50;;;19.93;;
20846;SDS011;10584;50.854;12.902;2023-04-08T21:09:03;45.83;;;19.83;;
20846;SDS011;10584;50.854;12.902;2023-04-08T21:14:25;44.17;;;20.30;;
20846;SDS011;10584;50.854;12.902;2023-04-08T21:19:46;46.23;;;20.90;;
20846;SDS011;10584;50.854;12.902;2023-04-08T21:25:08;50.10;;;20.83;;
20846;SDS011;10584;50.854;12.902;2023-04-08T21:30:31;45.40;;;20.13;;
20846;SDS011;10584;50.854;12.902;2023-04-08T21:35:54;46.57;;;20.50;;
20846;SDS011;10584;50.854;12.902;2023-04-08T21:41:15;46.37;;;20.43;;
20846;SDS011;10584;50.854;12.902;2023-04-08T21:46:37;45.67;;;19.80;;
20846;SDS011;10584;50.854;12.902;2023-04-08T21:51:59;49.00;;;21.20;;
20846;SDS011;10584;50.854;12.902;2023-04-08T21:57:22;43.37;;;19.50;;
20846;SDS011;10584;50.854;12.902;2023-04-08T22:02:43;42.90;;;20.03;;
20846;SDS011;10584;50.854;12.902;2023-04-08T22:08:05;49.57;;;19.87;;
20846;SDS011;10584;50.854;12.902;2023-04-08T22:13:27;46.13;;;20.17;;
20846;SDS011;10584;50.854;12.902;2023-04-08T22:18:49;41.77;;;18.20;;
20846;SDS011;10584;50.854;12.902;2023-04-08T22:24:11;46.13;;;18.70;;
20846;SDS011;10584;50.854;12.902;2023-04-08T22:29:32;47.83;;;19.93;;
20846;SDS011;10584;50.854;12.902;2023-04-08T22:34:54;49.53;;;20.53;;
20846;SDS011;10584;50.854;12.902;2023-04-08T22:40:16;52.27;;;20.33;;
20846;SDS011;10584;50.854;12.902;2023-04-08T22:45:37;48.33;;;20.43;;
20846;SDS011;10584;50.854;12.902;2023-04-08T22:50:59;48.37;;;20.33;;
20846;SDS011;10584;50.854;12.902;2023-04-08T22:56:21;51.77;;;20.83;;
20846;SDS011;10584;50.854;12.902;2023-04-08T23:01:43;50.23;;;20.40;;
20846;SDS011;10584;50.854;12.902;2023-04-08T23:07:04;50.90;;;20.40;;
20846;SDS011;10584;50.854;12.902;2023-04-08T23:12:25;55.13;;;20.80;;
20846;SDS011;10584;50.854;12.902;2023-04-08T23:17:47;51.63;;;21.03;;
20846;SDS011;10584;50.854;12.902;2023-04-08T23:23:08;51.13;;;20.73;;
20846;SDS011;10584;50.854;12.902;2023-04-08T23:28:30;46.00;;;19.57;;
20846;SDS011;10584;50.854;12.902;2023-04-08T23:33:51;47.53;;;19.30;;
20846;SDS011;10584;50.854;12.902;2023-04-08T23:39:13;48.00;;;19.90;;
20846;SDS011;10584;50.854;12.902;2023-04-08T23:44:34;54.97;;;20.43;;
20846;SDS011;10584;50.854;12.902;2023-04-08T23:49:56;55.13;;;20.73;;
20846;SDS011;10584;50.854;12.902;2023-04-08T23:55:17;51.20;;;20.23;;
